Aérodrome :
LOGIN :

S'inscrire | Disclaimer

   EN    FR    IT 

 










Légende :    VFR   VFR Marginal   IFR   IFR Intensif   IFR Très Intensif
Visi : 
Plafond : 
>= 8 km
>= 3000ft
5 à 8 km
1000 à 3000 ft
1500m à 5 km
500 à 1000 ft
800 à 1500m
200 à 500 ft
< 800m
< 200 ft
Symboles :   Orages  Brouillard  Fortes neiges  Fortes précipitations  Vent > 20 kt
SIGMETs :   Divers  Orages  Givrage  Turbulence  Onde Orograph.  Cendres Volcan.






- Altitude de l'aérodrome : 1302 ft
- Code IATA : GNB


LFLS - Grenoble / St. Geoirs

DERNIER METAR :
  • 202230Z AUTO VRB06KT CAVOK 12/M01 Q1006

METARs EXPIRÉS :
  • 202200Z AUTO 18010KT 140V220 CAVOK 12/M01 Q1006
  • 202130Z AUTO 22007KT 160V270 CAVOK 11/M01 Q1005
  • 202100Z AUTO 20012G24KT 170V240 CAVOK 11/M00 Q1005
  • 202030Z AUTO 25006KT 190V300 CAVOK 09/01 Q1006
  • 202000Z AUTO 23007KT 170V270 CAVOK 09/01 Q1006 TEMPO 18015G28KT

TAF TAF LFLS
Valide du 20 à 15h jusqu'au 21 à 15h UTC


201400Z 2015/2115 18012KT CAVOK
TEMPO 2015/2102 18015G28KT
PROB40
TEMPO 2022/2102 18020G35KT
BECMG 2105/2107 26008KT
BECMG 2112/2114 BKN060
ATIS : +33 4 76 65 55 89



MET'MAP, la Météo Aéronautique d'un coup d'oeil ! - Copyright ORBIFLY Décembre 2007 - Disclaimer

ORBIFLY MET'MAP TEAM :

Programmation & Développement : Alexandra Zaïnal
Sur une idée originale de : Baudouin d'Aumeries
Assistance à la programmation : Marc-Olivier Méhu
Soutien technique & logistique : Manuel Goepfert

Contact : metmap@orbifly.com




SOURCES & CREDITS :

   NOAA